createdAt,value
2024-01-20T00:00:16.714Z,-0.02
2024-01-20T00:02:44.723Z,-0.03
2024-01-20T00:05:13.019Z,0.07
2024-01-20T00:07:40.109Z,0.02
2024-01-20T00:10:12.166Z,0.02
2024-01-20T00:12:40.763Z,0.01
2024-01-20T00:15:11.776Z,-0.03
2024-01-20T00:17:40.069Z,-0.05
2024-01-20T00:20:07.351Z,-0.13
2024-01-20T00:22:34.210Z,-0.09
2024-01-20T00:25:03.350Z,-0.06
2024-01-20T00:27:32.120Z,-0.16
2024-01-20T00:29:59.709Z,-0.17
2024-01-20T00:32:26.617Z,-0.12
2024-01-20T00:35:00.609Z,-0.10
2024-01-20T00:37:34.556Z,-0.10
2024-01-20T00:40:01.156Z,-0.20
2024-01-20T00:42:27.756Z,-0.20
2024-01-20T00:44:54.320Z,-0.24
2024-01-20T00:47:21.624Z,-0.24
2024-01-20T00:49:49.052Z,-0.26
2024-01-20T00:52:16.405Z,-0.33
2024-01-20T00:54:42.978Z,-0.37
2024-01-20T00:57:09.932Z,-0.37
2024-01-20T00:59:36.500Z,-0.30
2024-01-20T01:02:03.296Z,-0.36
2024-01-20T01:04:29.960Z,-0.31
2024-01-20T01:06:56.479Z,-0.26
2024-01-20T01:09:23.035Z,-0.21
2024-01-20T01:11:49.695Z,-0.24
2024-01-20T01:14:16.384Z,-0.27
2024-01-20T01:16:43.127Z,-0.29
2024-01-20T01:19:10.143Z,-0.27
2024-01-20T01:21:36.703Z,-0.24
2024-01-20T01:24:04.417Z,-0.26
2024-01-20T01:26:33.083Z,-0.27
2024-01-20T01:29:00.028Z,-0.19
2024-01-20T01:31:26.669Z,-0.27
2024-01-20T01:33:53.326Z,-0.26
2024-01-20T01:36:19.979Z,-0.24
2024-01-20T01:38:47.116Z,-0.31
2024-01-20T01:41:14.403Z,-0.23
2024-01-20T01:43:41.082Z,-0.20
2024-01-20T01:46:08.080Z,-0.20
2024-01-20T01:48:35.208Z,-0.23
2024-01-20T01:51:05.258Z,-0.20
2024-01-20T01:53:35.042Z,-0.19
2024-01-20T01:56:02.576Z,-0.17
2024-01-20T01:58:30.481Z,-0.17
2024-01-20T02:00:57.370Z,-0.17
2024-01-20T02:03:24.621Z,-0.10
2024-01-20T02:05:51.626Z,-0.14
2024-01-20T02:08:19.200Z,-0.10
2024-01-20T02:10:48.160Z,-0.16
2024-01-20T02:13:15.036Z,-0.17
2024-01-20T02:15:41.788Z,-0.16
2024-01-20T02:18:08.650Z,-0.24
2024-01-20T02:20:35.511Z,-0.27
2024-01-20T02:23:02.141Z,-0.34
2024-01-20T02:25:28.924Z,-0.43
2024-01-20T02:27:55.443Z,-0.45
2024-01-20T02:30:22.036Z,-0.56
2024-01-20T02:32:48.706Z,-0.62
2024-01-20T02:35:17.624Z,-0.62
2024-01-20T02:37:44.232Z,-0.56
2024-01-20T02:40:11.826Z,-0.57
2024-01-20T02:42:38.429Z,-0.60
2024-01-20T02:45:06.828Z,-0.58
2024-01-20T02:47:33.440Z,-0.61
2024-01-20T02:50:00.091Z,-0.56
2024-01-20T02:52:27.028Z,-0.58
2024-01-20T02:54:53.555Z,-0.61
2024-01-20T02:57:20.380Z,-0.65
2024-01-20T02:59:47.062Z,-0.67
2024-01-20T03:02:13.597Z,-0.57
2024-01-20T03:04:40.128Z,-0.58
2024-01-20T03:07:06.710Z,-0.58
2024-01-20T03:09:33.273Z,-0.58
2024-01-20T03:12:00.219Z,-0.57
2024-01-20T03:14:26.952Z,-0.57
2024-01-20T03:16:53.459Z,-0.45
2024-01-20T03:19:20.274Z,-0.37
2024-01-20T03:21:46.844Z,-0.36
2024-01-20T03:24:13.537Z,-0.41
2024-01-20T03:26:40.131Z,-0.44
2024-01-20T03:29:06.903Z,-0.49
2024-01-20T03:31:33.482Z,-0.44
2024-01-20T03:34:00.217Z,-0.44
2024-01-20T03:36:26.834Z,-0.47
2024-01-20T03:38:53.545Z,-0.40
2024-01-20T03:41:20.090Z,-0.34
2024-01-20T03:43:46.644Z,-0.30
2024-01-20T03:46:13.277Z,-0.23
2024-01-20T03:48:40.633Z,-0.21
2024-01-20T03:51:07.365Z,-0.12
2024-01-20T03:53:33.963Z,0.05
2024-01-20T03:56:02.644Z,0.08
2024-01-20T03:58:29.301Z,0.12
2024-01-20T04:00:55.845Z,0.12
2024-01-20T04:03:22.483Z,0.19
2024-01-20T04:05:49.061Z,0.22
2024-01-20T04:08:15.832Z,0.22
2024-01-20T04:10:42.548Z,0.32
2024-01-20T04:13:09.460Z,0.39
2024-01-20T04:15:36.088Z,0.35
2024-01-20T04:18:02.842Z,0.29
2024-01-20T04:20:29.474Z,0.21
2024-01-20T04:22:56.008Z,0.15
2024-01-20T04:25:22.568Z,0.08
2024-01-20T04:27:49.114Z,0.07
2024-01-20T04:30:15.768Z,0.08
2024-01-20T04:32:42.369Z,0.07
2024-01-20T04:35:09.377Z,0.04
2024-01-20T04:37:38.009Z,0.01
2024-01-20T04:40:04.854Z,0.00
2024-01-20T04:42:31.582Z,-0.05
2024-01-20T04:44:59.011Z,-0.03
2024-01-20T04:47:25.742Z,-0.03
2024-01-20T04:49:54.776Z,-0.05
2024-01-20T04:52:21.432Z,0.00
2024-01-20T04:54:48.018Z,0.00
2024-01-20T04:57:15.002Z,0.07
2024-01-20T04:59:41.712Z,0.07
2024-01-20T05:02:08.236Z,0.08
2024-01-20T05:04:34.828Z,0.12
2024-01-20T05:07:01.501Z,0.15
2024-01-20T05:09:28.187Z,0.18
2024-01-20T05:11:54.824Z,0.21
2024-01-20T05:14:21.955Z,0.18
2024-01-20T05:16:48.560Z,0.24
2024-01-20T05:19:15.353Z,0.24
2024-01-20T05:21:42.061Z,0.24
2024-01-20T05:24:08.831Z,0.24
2024-01-20T05:26:35.483Z,0.26
2024-01-20T05:29:02.007Z,0.29
2024-01-20T05:31:32.928Z,0.28
2024-01-20T05:34:00.392Z,0.25
2024-01-20T05:36:27.539Z,0.22
2024-01-20T05:38:54.524Z,0.17
2024-01-20T05:41:21.152Z,0.12
2024-01-20T05:43:47.775Z,0.07
2024-01-20T05:46:14.345Z,0.04
2024-01-20T05:48:41.038Z,-0.02
2024-01-20T05:51:08.180Z,-0.09
2024-01-20T05:53:34.839Z,0.01
2024-01-20T05:56:01.422Z,0.00
2024-01-20T05:58:28.052Z,0.02
2024-01-20T06:00:55.648Z,-0.03
2024-01-20T06:03:22.452Z,-0.06
2024-01-20T06:05:49.893Z,-0.09
2024-01-20T06:08:16.430Z,-0.14
2024-01-20T06:10:43.030Z,-0.14
2024-01-20T06:13:09.583Z,-0.10
2024-01-20T06:15:36.268Z,-0.14
2024-01-20T06:18:03.163Z,-0.13
2024-01-20T06:20:29.724Z,-0.13
2024-01-20T06:22:56.390Z,-0.12
2024-01-20T06:25:22.959Z,-0.20
2024-01-20T06:27:49.487Z,-0.24
2024-01-20T06:30:16.288Z,-0.31
2024-01-20T06:32:42.921Z,-0.33
2024-01-20T06:35:09.744Z,-0.29
2024-01-20T06:37:36.373Z,-0.29
2024-01-20T06:40:03.242Z,-0.31
2024-01-20T06:42:29.870Z,-0.14
2024-01-20T06:44:58.011Z,-0.14
2024-01-20T06:47:27.280Z,-0.13
2024-01-20T06:49:54.847Z,-0.17
2024-01-20T06:52:21.887Z,-0.17
2024-01-20T06:54:49.296Z,-0.19
2024-01-20T06:57:15.888Z,-0.20
2024-01-20T06:59:42.449Z,-0.24
2024-01-20T07:02:09.525Z,-0.27
2024-01-20T07:04:36.144Z,-0.07
2024-01-20T07:07:02.719Z,-0.02
2024-01-20T07:09:29.438Z,0.07
2024-01-20T07:11:58.924Z,0.12
2024-01-20T07:14:26.944Z,0.19
2024-01-20T07:16:53.794Z,0.25
2024-01-20T07:19:20.355Z,0.32
2024-01-20T07:21:46.919Z,0.32
2024-01-20T07:24:13.913Z,0.37
2024-01-20T07:26:40.631Z,0.37
2024-01-20T07:29:07.230Z,0.35
2024-01-20T07:31:33.768Z,0.35
2024-01-20T07:34:00.488Z,0.41
2024-01-20T07:36:27.160Z,0.44
2024-01-20T07:38:53.796Z,0.49
2024-01-20T07:41:20.906Z,0.48
2024-01-20T07:43:47.482Z,0.52
2024-01-20T07:46:14.104Z,0.58
2024-01-20T07:48:40.914Z,0.59
2024-01-20T07:51:08.723Z,0.65
2024-01-20T07:53:35.364Z,0.70
2024-01-20T07:56:01.982Z,0.70
2024-01-20T07:58:28.527Z,0.72
2024-01-20T08:00:55.162Z,0.75
2024-01-20T08:03:21.947Z,0.75
2024-01-20T08:05:48.710Z,0.75
2024-01-20T08:08:15.342Z,0.76
2024-01-20T08:10:41.931Z,0.73
2024-01-20T08:13:08.530Z,0.70
2024-01-20T08:15:35.074Z,0.72
2024-01-20T08:18:01.865Z,0.69
2024-01-20T08:20:28.637Z,0.69
2024-01-20T08:22:55.208Z,0.60
2024-01-20T08:25:21.767Z,0.65
2024-01-20T08:27:48.381Z,0.66
2024-01-20T08:30:15.423Z,0.63
2024-01-20T08:32:42.661Z,0.75
2024-01-20T08:35:11.030Z,0.72
2024-01-20T08:37:37.610Z,0.76
2024-01-20T08:40:04.536Z,0.75
2024-01-20T08:42:31.059Z,0.80
2024-01-20T08:44:57.716Z,0.81
2024-01-20T08:47:24.630Z,0.79
2024-01-20T08:49:53.202Z,0.83
2024-01-20T08:52:20.492Z,0.83
2024-01-20T08:54:48.177Z,0.89
2024-01-20T08:57:14.934Z,0.96
2024-01-20T08:59:41.548Z,0.97
2024-01-20T09:02:08.317Z,1.03
2024-01-20T09:04:35.847Z,1.11
2024-01-20T09:07:02.703Z,1.16
2024-01-20T09:09:29.454Z,1.21
2024-01-20T09:11:56.140Z,1.24
2024-01-20T09:14:22.695Z,1.27
2024-01-20T09:16:49.812Z,1.18
2024-01-20T09:19:17.017Z,1.24
2024-01-20T09:21:47.430Z,1.31
2024-01-20T09:24:14.842Z,1.30
2024-01-20T09:26:41.603Z,1.37
2024-01-20T09:29:08.167Z,1.42
2024-01-20T09:31:34.787Z,1.34
2024-01-20T09:34:01.420Z,1.34
2024-01-20T09:36:29.004Z,1.40
2024-01-20T09:38:55.643Z,1.40
2024-01-20T09:41:22.641Z,1.38
2024-01-20T09:43:49.397Z,1.41
2024-01-20T09:46:16.497Z,1.47
2024-01-20T09:48:44.560Z,1.59
2024-01-20T09:51:11.621Z,1.65
2024-01-20T09:53:39.834Z,1.75
2024-01-20T09:56:06.995Z,1.75
2024-01-20T09:58:38.372Z,1.56
2024-01-20T10:01:05.722Z,1.75
2024-01-20T10:03:35.792Z,1.68
2024-01-20T10:06:02.676Z,1.82
2024-01-20T10:08:29.330Z,1.99
2024-01-20T10:11:05.699Z,2.33
2024-01-20T10:13:32.600Z,2.71
2024-01-20T10:15:59.448Z,3.20
2024-01-20T10:18:26.194Z,2.87
2024-01-20T10:21:07.273Z,2.89
2024-01-20T10:23:38.506Z,2.92
2024-01-20T10:26:06.620Z,3.03
2024-01-20T10:28:34.708Z,3.16
2024-01-20T10:31:09.199Z,3.15
2024-01-20T10:33:36.419Z,2.77
2024-01-20T10:36:04.839Z,2.72
2024-01-20T10:38:36.705Z,2.60
2024-01-20T10:41:04.698Z,2.42
2024-01-20T10:43:40.441Z,2.44
2024-01-20T10:46:16.126Z,2.24
2024-01-20T10:48:47.936Z,2.30
2024-01-20T10:51:19.815Z,2.17
2024-01-20T10:53:47.978Z,2.31
2024-01-20T10:56:15.329Z,2.07
2024-01-20T10:58:49.311Z,2.13
2024-01-20T11:01:16.526Z,2.16
2024-01-20T11:03:43.393Z,2.14
2024-01-20T11:06:21.481Z,2.24
2024-01-20T11:08:52.505Z,2.16
2024-01-20T11:11:20.872Z,2.16
2024-01-20T11:13:48.874Z,2.26
2024-01-20T11:16:22.931Z,2.31
2024-01-20T11:18:49.937Z,2.33
2024-01-20T11:21:18.159Z,2.37
2024-01-20T11:24:02.809Z,2.45
2024-01-20T11:26:34.368Z,2.61
2024-01-20T11:29:02.816Z,2.42
2024-01-20T11:31:31.751Z,2.45
2024-01-20T11:34:03.695Z,2.74
2024-01-20T11:36:31.468Z,2.98
2024-01-20T11:38:59.534Z,3.10
2024-01-20T11:41:26.516Z,2.98
2024-01-20T11:43:53.125Z,3.03
2024-01-20T11:46:20.730Z,2.92
2024-01-20T11:48:51.003Z,2.95
2024-01-20T11:51:17.888Z,2.79
2024-01-20T11:53:45.229Z,2.89
2024-01-20T11:56:11.832Z,2.92
2024-01-20T11:58:38.893Z,2.78
2024-01-20T12:01:05.923Z,2.74
2024-01-20T12:03:32.823Z,2.85
2024-01-20T12:06:08.139Z,2.87
2024-01-20T12:08:37.626Z,2.93
2024-01-20T12:11:04.352Z,2.93
2024-01-20T12:13:33.992Z,3.05
2024-01-20T12:16:00.980Z,3.13
2024-01-20T12:18:27.777Z,3.16
2024-01-20T12:20:54.516Z,3.26
2024-01-20T12:23:21.563Z,3.41
2024-01-20T12:25:52.998Z,3.51
2024-01-20T12:28:19.819Z,3.36
2024-01-20T12:30:46.654Z,3.36
2024-01-20T12:33:13.448Z,3.40
2024-01-20T12:35:40.059Z,3.41
2024-01-20T12:38:06.636Z,3.64
2024-01-20T12:40:33.502Z,3.95
2024-01-20T12:43:00.192Z,4.13
2024-01-20T12:45:26.754Z,4.74
2024-01-20T12:47:53.655Z,5.04
2024-01-20T12:50:20.230Z,5.00
2024-01-20T12:52:47.190Z,4.88
2024-01-20T12:55:13.762Z,4.80
2024-01-20T12:57:40.537Z,4.74
2024-01-20T13:00:07.927Z,4.62
2024-01-20T13:02:34.501Z,4.45
2024-01-20T13:05:01.089Z,4.25
2024-01-20T13:07:27.820Z,4.05
2024-01-20T13:09:54.743Z,4.18
2024-01-20T13:12:21.870Z,4.56
2024-01-20T13:14:48.478Z,4.31
2024-01-20T13:17:15.005Z,4.33
2024-01-20T13:19:41.884Z,4.35
2024-01-20T13:22:08.579Z,4.32
2024-01-20T13:24:35.143Z,4.29
2024-01-20T13:27:01.754Z,4.22
2024-01-20T13:29:28.379Z,4.11
2024-01-20T13:31:55.151Z,3.90
2024-01-20T13:34:21.861Z,3.70
2024-01-20T13:36:48.617Z,3.70
2024-01-20T13:39:15.717Z,3.64
2024-01-20T13:41:42.440Z,3.67
2024-01-20T13:44:08.990Z,3.69
2024-01-20T13:46:35.570Z,3.67
2024-01-20T13:49:05.185Z,3.73
2024-01-20T13:51:33.078Z,3.70
2024-01-20T13:54:01.050Z,3.64
2024-01-20T13:56:27.710Z,3.61
2024-01-20T13:58:55.032Z,3.61
2024-01-20T14:01:23.373Z,3.56
2024-01-20T14:03:50.786Z,3.60
2024-01-20T14:06:17.854Z,3.59
2024-01-20T14:08:44.559Z,3.49
2024-01-20T14:11:11.096Z,3.53
2024-01-20T14:13:37.717Z,3.51
2024-01-20T14:16:04.728Z,3.44
2024-01-20T14:18:31.447Z,3.36
2024-01-20T14:20:58.240Z,3.32
2024-01-20T14:23:25.148Z,3.27
2024-01-20T14:25:51.742Z,3.20
2024-01-20T14:28:18.837Z,3.20
2024-01-20T14:30:46.160Z,3.22
2024-01-20T14:33:13.063Z,3.09
2024-01-20T14:35:39.833Z,3.12
2024-01-20T14:38:06.473Z,3.02
2024-01-20T14:40:33.029Z,2.98
2024-01-20T14:42:59.545Z,2.92
2024-01-20T14:45:26.395Z,2.84
2024-01-20T14:47:52.960Z,2.82
2024-01-20T14:50:19.593Z,2.84
2024-01-20T14:52:46.151Z,2.85
2024-01-20T14:55:12.786Z,2.85
2024-01-20T14:57:40.402Z,2.81
2024-01-20T15:00:09.911Z,2.79
2024-01-20T15:02:36.613Z,2.82
2024-01-20T15:05:03.394Z,2.77
2024-01-20T15:07:33.940Z,2.64
2024-01-20T15:10:02.148Z,2.54
2024-01-20T15:12:30.008Z,2.42
2024-01-20T15:14:57.243Z,2.33
2024-01-20T15:17:23.938Z,2.23
2024-01-20T15:19:51.069Z,2.24
2024-01-20T15:22:18.657Z,2.23
2024-01-20T15:24:45.773Z,2.14
2024-01-20T15:27:12.609Z,2.11
2024-01-20T15:29:39.249Z,2.14
2024-01-20T15:32:06.344Z,2.10
2024-01-20T15:34:33.035Z,2.13
2024-01-20T15:36:59.663Z,2.14
2024-01-20T15:39:26.380Z,2.21
2024-01-20T15:41:53.348Z,2.29
2024-01-20T15:44:19.896Z,2.38
2024-01-20T15:46:46.476Z,2.44
2024-01-20T15:49:13.228Z,2.48
2024-01-20T15:51:40.263Z,2.45
2024-01-20T15:54:06.872Z,2.48
2024-01-20T15:56:40.994Z,2.51
2024-01-20T15:59:07.507Z,2.52
2024-01-20T16:01:34.123Z,2.54
2024-01-20T16:04:00.827Z,2.57
2024-01-20T16:06:27.551Z,2.57
2024-01-20T16:08:57.463Z,2.58
2024-01-20T16:11:24.279Z,2.52
2024-01-20T16:13:50.885Z,2.52
2024-01-20T16:16:17.447Z,2.54
2024-01-20T16:18:44.093Z,2.48
2024-01-20T16:21:10.729Z,2.48
2024-01-20T16:23:37.267Z,2.50
2024-01-20T16:26:04.857Z,2.48
2024-01-20T16:28:33.551Z,2.51
2024-01-20T16:31:01.229Z,2.47
2024-01-20T16:33:28.141Z,2.47
2024-01-20T16:35:55.180Z,2.41
2024-01-20T16:38:22.053Z,2.36
2024-01-20T16:40:48.697Z,2.27
2024-01-20T16:43:15.357Z,2.16
2024-01-20T16:45:44.821Z,2.05
2024-01-20T16:48:11.754Z,1.98
2024-01-20T16:50:38.386Z,1.86
2024-01-20T16:53:07.795Z,1.76
2024-01-20T16:55:35.546Z,1.68
2024-01-20T16:58:02.218Z,1.55
2024-01-20T17:00:28.841Z,1.59
2024-01-20T17:02:56.932Z,1.58
2024-01-20T17:05:25.401Z,1.55
2024-01-20T17:07:52.540Z,1.47
2024-01-20T17:10:19.143Z,1.42
2024-01-20T17:12:45.706Z,1.42
2024-01-20T17:15:12.362Z,1.48
2024-01-20T17:17:38.908Z,1.55
2024-01-20T17:20:05.905Z,1.58
2024-01-20T17:22:32.677Z,1.61
2024-01-20T17:24:59.284Z,1.68
2024-01-20T17:27:25.836Z,1.68
2024-01-20T17:29:52.461Z,1.65
2024-01-20T17:32:19.052Z,1.63
2024-01-20T17:34:45.659Z,1.62
2024-01-20T17:37:12.276Z,1.58
2024-01-20T17:39:39.194Z,1.61
2024-01-20T17:42:06.145Z,1.59
2024-01-20T17:44:33.665Z,1.54
2024-01-20T17:47:00.956Z,1.54
2024-01-20T17:49:27.850Z,1.54
2024-01-20T17:51:54.887Z,1.48
2024-01-20T17:54:24.527Z,1.49
2024-01-20T17:56:53.052Z,1.48
2024-01-20T17:59:19.650Z,1.42
2024-01-20T18:01:46.274Z,1.38
2024-01-20T18:04:13.113Z,1.35
2024-01-20T18:06:40.002Z,1.32
2024-01-20T18:09:06.754Z,1.32
2024-01-20T18:11:33.473Z,1.38
2024-01-20T18:14:00.035Z,1.37
2024-01-20T18:16:26.835Z,1.37
2024-01-20T18:18:53.479Z,1.37
2024-01-20T18:21:20.819Z,1.27
2024-01-20T18:23:47.472Z,1.20
2024-01-20T18:26:14.042Z,1.27
2024-01-20T18:28:40.580Z,1.26
2024-01-20T18:31:08.627Z,1.14
2024-01-20T18:33:36.460Z,1.10
2024-01-20T18:36:03.596Z,0.93
2024-01-20T18:38:30.833Z,0.84
2024-01-20T18:40:57.500Z,0.72
2024-01-20T18:43:24.076Z,0.60
2024-01-20T18:45:51.130Z,0.48
2024-01-20T18:48:17.843Z,0.44
2024-01-20T18:50:44.556Z,0.41
2024-01-20T18:53:13.338Z,0.32
2024-01-20T18:55:41.466Z,0.32
2024-01-20T18:58:08.457Z,0.35
2024-01-20T19:00:35.982Z,0.25
2024-01-20T19:03:02.790Z,0.15
2024-01-20T19:05:29.477Z,0.08
2024-01-20T19:07:57.065Z,0.14
2024-01-20T19:10:23.809Z,0.14
2024-01-20T19:12:50.430Z,0.08
2024-01-20T19:15:17.299Z,0.05
2024-01-20T19:17:44.418Z,0.02
2024-01-20T19:20:11.160Z,-0.03
2024-01-20T19:22:38.093Z,0.04
2024-01-20T19:25:05.639Z,-0.07
2024-01-20T19:27:32.230Z,-0.13
2024-01-20T19:29:58.802Z,-0.12
2024-01-20T19:32:25.572Z,-0.16
2024-01-20T19:34:52.165Z,-0.16
2024-01-20T19:37:18.767Z,-0.20
2024-01-20T19:39:46.139Z,-0.26
2024-01-20T19:42:13.969Z,-0.37
2024-01-20T19:44:40.572Z,-0.40
2024-01-20T19:47:07.582Z,-0.44
2024-01-20T19:49:34.452Z,-0.47
2024-01-20T19:52:03.076Z,-0.50
2024-01-20T19:54:30.215Z,-0.50
2024-01-20T19:56:57.281Z,-0.60
2024-01-20T19:59:23.904Z,-0.67
2024-01-20T20:01:50.578Z,-0.70
2024-01-20T20:04:18.640Z,-0.72
2024-01-20T20:06:50.023Z,-0.80
2024-01-20T20:09:18.234Z,-0.91
2024-01-20T20:11:44.967Z,-0.96
2024-01-20T20:14:12.904Z,-1.01
2024-01-20T20:16:40.618Z,-1.06
2024-01-20T20:19:07.593Z,-1.09
2024-01-20T20:21:34.436Z,-1.22
2024-01-20T20:24:01.152Z,-1.33
2024-01-20T20:26:27.690Z,-1.43
2024-01-20T20:28:54.216Z,-1.52
2024-01-20T20:31:23.181Z,-1.54
2024-01-20T20:33:50.304Z,-1.50
2024-01-20T20:36:20.109Z,-1.57
2024-01-20T20:38:47.231Z,-1.61
2024-01-20T20:41:13.762Z,-1.67
2024-01-20T20:43:40.317Z,-1.63
2024-01-20T20:46:06.979Z,-1.60
2024-01-20T20:48:33.679Z,-1.59
2024-01-20T20:51:00.294Z,-1.56
2024-01-20T20:53:26.901Z,-1.56
2024-01-20T20:55:53.552Z,-1.66
2024-01-20T20:58:20.105Z,-1.67
2024-01-20T21:00:46.745Z,-1.75
2024-01-20T21:03:13.809Z,-1.83
2024-01-20T21:05:40.778Z,-1.92
2024-01-20T21:08:07.423Z,-1.85
2024-01-20T21:10:34.020Z,-1.78
2024-01-20T21:13:00.843Z,-1.87
2024-01-20T21:15:27.682Z,-1.99
2024-01-20T21:17:54.418Z,-1.98
2024-01-20T21:20:21.208Z,-2.05
2024-01-20T21:22:47.870Z,-2.08
2024-01-20T21:25:14.744Z,-2.02
2024-01-20T21:27:41.502Z,-2.02
2024-01-20T21:30:08.773Z,-2.09
2024-01-20T21:32:35.574Z,-2.05
2024-01-20T21:35:02.903Z,-2.12
2024-01-20T21:37:29.617Z,-2.15
2024-01-20T21:39:56.347Z,-2.26
2024-01-20T21:42:22.980Z,-2.32
2024-01-20T21:44:49.589Z,-2.35
2024-01-20T21:47:16.175Z,-2.28
2024-01-20T21:49:42.803Z,-2.28
2024-01-20T21:52:09.386Z,-2.36
2024-01-20T21:54:36.006Z,-2.43
2024-01-20T21:57:02.665Z,-2.35
2024-01-20T21:59:29.285Z,-2.32
2024-01-20T22:01:55.878Z,-2.35
2024-01-20T22:04:22.623Z,-2.36
2024-01-20T22:06:51.217Z,-2.41
2024-01-20T22:09:18.310Z,-2.46
2024-01-20T22:11:45.112Z,-2.52
2024-01-20T22:14:11.951Z,-2.57
2024-01-20T22:16:38.493Z,-2.67
2024-01-20T22:19:05.281Z,-2.56
2024-01-20T22:21:31.967Z,-2.60
2024-01-20T22:23:59.407Z,-2.66
2024-01-20T22:26:25.982Z,-2.59
2024-01-20T22:28:55.054Z,-2.63
2024-01-20T22:31:23.101Z,-2.59
2024-01-20T22:33:49.778Z,-2.62
2024-01-20T22:36:16.447Z,-2.66
2024-01-20T22:38:43.445Z,-2.67
2024-01-20T22:41:10.136Z,-2.73
2024-01-20T22:43:37.186Z,-2.69
2024-01-20T22:46:04.457Z,-2.70
2024-01-20T22:48:36.343Z,-2.76
2024-01-20T22:51:03.589Z,-2.74
2024-01-20T22:53:31.850Z,-2.77
2024-01-20T22:55:58.390Z,-2.88
2024-01-20T22:58:25.112Z,-2.95
2024-01-20T23:00:51.894Z,-3.01
2024-01-20T23:03:18.630Z,-3.12
2024-01-20T23:05:45.725Z,-3.24
2024-01-20T23:08:17.053Z,-3.27
2024-01-20T23:10:43.639Z,-3.24
2024-01-20T23:13:10.328Z,-3.32
2024-01-20T23:15:37.091Z,-3.38
2024-01-20T23:18:03.827Z,-3.34
2024-01-20T23:20:30.840Z,-3.39
2024-01-20T23:22:57.396Z,-3.42
2024-01-20T23:25:23.922Z,-3.48
2024-01-20T23:27:50.463Z,-3.51
2024-01-20T23:30:18.421Z,-3.58
2024-01-20T23:32:45.177Z,-3.65
2024-01-20T23:35:11.971Z,-3.69
2024-01-20T23:37:39.032Z,-3.77
2024-01-20T23:40:06.074Z,-3.83
2024-01-20T23:42:32.968Z,-3.86
2024-01-20T23:44:59.731Z,-3.91
2024-01-20T23:47:26.388Z,-3.93
2024-01-20T23:49:53.028Z,-3.97
2024-01-20T23:52:19.556Z,-4.00
2024-01-20T23:54:46.129Z,-4.03
2024-01-20T23:57:12.729Z,-3.94
2024-01-20T23:59:39.297Z,-3.90
